Home > Products > Valid Products > TAF

000
FTUS45 KTWC 310500 AAA
TAFTUS
TAF AMD
KTUS 310541Z 3106/0106 17006KT P6SM SCT015 OVC035
      TEMPO 3106/3108 2SM SHRA BR BKN005 OVC015
     FM311500 16005KT P6SM -SHRA SCT035 OVC050
     FM312300 15006KT P6SM VCSH SCT050 OVC070=



000
FTUS45 KTWC 310500
TAFOLS
TAF
KOLS 310535Z 3106/0106 VRB03KT P6SM -SHRA SCT015 OVC025
      TEMPO 3106/3108 SCT005 OVC015
     FM311500 17005KT P6SM -SHRA SCT015 OVC030
     FM312300 20008KT P6SM VCSH SCT035 OVC060=



000
FTUS45 KTWC 310500
TAFOLS
TAF
KOLS 310535Z 3106/0106 VRB03KT P6SM -SHRA SCT015 OVC025
      TEMPO 3106/3108 SCT005 OVC015
     FM311500 17005KT P6SM -SHRA SCT015 OVC030
     FM312300 20008KT P6SM VCSH SCT035 OVC060=



000
FTUS45 KTWC 310500
TAFTUS
TAF
KTUS 310535Z 3106/0106 17006KT P6SM SCT025 OVC040
      TEMPO 3106/3108 -SHRA BKN025 OVC030
     FM311500 16005KT P6SM -SHRA SCT035 OVC050
     FM312300 15006KT P6SM VCSH SCT050 OVC070=



000
FTUS45 KTWC 310500
TAFDUG
TAF
KDUG 310535Z 3106/0106 25004KT P6SM -SHRA SCT015 OVC040
      TEMPO 3106/3110 3SM -SHRA SCT015 BKN025
     FM311600 18008KT P6SM -SHRA SCT020 OVC040
     FM010100 15008KT P6SM VCSH SCT030 OVC050=



000
FTUS45 KTWC 310400 AAE
TAFTUS
TAF AMD
KTUS 310407Z 3104/3124 19006KT P6SM SCT010 OVC020
      TEMPO 3104/3106 1SM SHRA BR BKN005 OVC015
     FM310600 10005KT P6SM -SHRA SCT015 OVC050
     FM310700 14006KT P6SM VCSH SCT015 OVC040=



000
FTUS45 KTWC 310300 AAC
TAFOLS
TAF AMD
KOLS 310305Z 3103/3124 15006KT P6SM -SHRA SCT025 OVC040
      TEMPO 3103/3106 3SM SHRA BR SCT015 OVC020
     FM310600 VRB03KT P6SM -SHRA SCT015 OVC040
     FM311500 16007KT P6SM VCSH SCT015 OVC050=



000
FTUS45 KTWC 310300 AAD
TAFTUS
TAF AMD
KTUS 310302Z 3103/3124 29010KT P6SM SCT010 OVC050
      TEMPO 3103/3106 5SM SHRA BR BKN005 OVC020
     FM310600 10005KT P6SM -SHRA SCT015 OVC050
     FM310700 14006KT P6SM VCSH SCT015 OVC040=



000
FTUS45 KTWC 310000 AAB
TAFOLS
TAF AMD
KOLS 310053Z 3101/3124 VRB03KT P6SM -SHRA SCT035 OVC050
      TEMPO 3101/3102 3SM SHRA BR SCT025 BKN040
     FM310200 VRB03KT P6SM -SHRA SCT015 OVC040
     FM311500 16007KT P6SM VCSH SCT015 OVC050=



000
FTUS45 KTWC 310000 AAB
TAFOLS
TAF AMD
KOLS 310053Z 3101/3124 VRB03KT P6SM -SHRA SCT035 OVC050
      TEMPO 3101/3102 3SM SHRA BR SCT025 BKN040
     FM310200 VRB03KT P6SM -SHRA SCT015 OVC040
     FM311500 16007KT P6SM VCSH SCT015 OVC050=



000
FTUS45 KTWC 310000 AAC
TAFTUS
TAF AMD
KTUS 310050Z 3101/3124 29010KT P6SM -SHRA SCT015 OVC050
      TEMPO 3101/3102 1 1/2SM SHRA BR SCT010 OVC035
     FM310200 10005KT P6SM -SHRA SCT015 OVC050
     FM310700 14006KT P6SM VCSH SCT015 OVC040=



000
FTUS45 KTWC 310000 AAB
TAFTUS
TAF AMD
KTUS 310016Z 3100/3124 VRB03KT P6SM -SHRA SCT015 OVC060
      TEMPO 3100/3101 3SM SHRA BR
     FM310200 10005KT P6SM -SHRA SCT015 OVC050
     FM310700 14006KT P6SM VCSH SCT015 OVC040=



000
FTUS45 KTWC 310000 AAA
TAFOLS
TAF AMD
KOLS 310005Z 3100/3124 VRB03KT P6SM -SHRA SCT015 OVC050
      TEMPO 3100/3102 3SM SHRA BR
     FM310200 VRB03KT P6SM -SHRA SCT015 OVC040
     FM311500 16007KT P6SM VCSH SCT015 OVC050=



000
FTUS45 KTWC 302300 AAA
TAFTUS
TAF AMD
KTUS 302356Z 3100/3124 VRB03KT 5SM -SHRA BR SCT010 OVC060
      TEMPO 3100/3101 2SM SHRA BKN015
     FM310200 10006KT P6SM -SHRA SCT015 OVC030
     FM310700 14007KT P6SM VCSH SCT020 OVC040=



000
FTUS45 KTWC 302300 AAA
TAFDUG
TAF AMD
KDUG 302351Z 3100/3124 11010KT P6SM -SHRA SCT010 OVC040
      TEMPO 3100/3102 3SM SHRA BKN015
     FM310400 12008KT 6SM -SHRA BR SCT010 OVC030
     FM311200 09005KT P6SM VCSH BKN015 OVC060=



000
FTUS45 KTWC 302300
TAFOLS
TAF
KOLS 302330Z 3100/3124 21008KT 5SM -SHRA BR SCT015 BKN040
      TEMPO 3100/3101 1SM SHRA BR BKN010 OVC020
     FM310100 19007KT P6SM -SHRA SCT015 OVC040
     FM310700 13006KT P6SM VCSH SCT015 BKN050=



000
FTUS45 KTWC 302300
TAFOLS
TAF
KOLS 302330Z 3100/3124 21008KT 5SM -SHRA BR SCT015 BKN040
      TEMPO 3100/3101 1SM SHRA BR BKN010 OVC020
     FM310100 19007KT P6SM -SHRA SCT015 OVC040
     FM310700 13006KT P6SM VCSH SCT015 BKN050=



000
FTUS45 KTWC 302300
TAFDUG
TAF
KDUG 302330Z 3100/3124 11010G18KT P6SM VCSH SCT010 OVC040
     FM310400 12008KT 6SM -SHRA BR SCT010 OVC030
     FM311200 09005KT P6SM VCSH BKN015 OVC060=



000
FTUS45 KTWC 302300
TAFTUS
TAF
KTUS 302330Z 3100/3124 VRB03KT 4SM -SHRA BR SCT010 OVC030
      TEMPO 3100/3101 1SM +SHRA BKN012
     FM310200 10006KT P6SM -SHRA SCT015 OVC030
     FM310700 14007KT P6SM VCSH SCT020 OVC040=



000
FTUS45 KTWC 302300 AAA
TAFOLS
TAF AMD
KOLS 302323Z 3023/3118 21008KT 5SM -SHRA BR SCT015 BKN040
      TEMPO 3023/3101 1SM SHRA BR BKN010 OVC020
     FM310100 19007KT P6SM -SHRA SCT015 OVC040
     FM310700 13006KT P6SM VCSH SCT015 BKN050=



000
FTUS45 KTWC 302300 AAA
TAFOLS
TAF AMD
KOLS 302323Z 3023/3118 21008KT 5SM -SHRA BR SCT015 BKN040
      TEMPO 3023/3101 1SM SHRA BR BKN010 OVC020
     FM310100 19007KT P6SM -SHRA SCT015 OVC040
     FM310700 13006KT P6SM VCSH SCT015 BKN050=



000
FTUS45 KTWC 302300 AAA
TAFDUG
TAF AMD
KDUG 302305Z 3023/3118 11010G18KT P6SM VCSH SCT010 OVC040
     FM310400 12008KT 6SM -SHRA BR SCT010 OVC030
     FM311200 09005KT P6SM VCSH BKN015 OVC060=



000
FTUS45 KTWC 302200 AAB
TAFTUS
TAF AMD
KTUS 302259Z 3023/3118 11010KT 4SM -SHRA BR SCT020 BKN035 OVC045
      TEMPO 3023/3024 1SM SHRA BR SCT010 BKN020
     FM310200 10008KT P6SM -SHRA SCT025 OVC040
     FM310700 14008KT P6SM VCSH SCT030 OVC060=



000
FTUS45 KTWC 302200 AAB
TAFOLS
TAF AMD
KOLS 302223Z 3022/3118 18005KT 6SM -SHRA BR SCT015 OVC025
      TEMPO 3022/3024 2SM SHRA BR BKN010 OVC020
     FM310100 22010KT P6SM -SHRA SCT015 BKN030 OVC040
     FM310400 25008KT P6SM -SHRA SCT025 OVC035
     FM310700 23008KT P6SM VCSH SCT035 BKN050 OVC070=



000
FTUS45 KTWC 302200 AAB
TAFOLS
TAF AMD
KOLS 302223Z 3022/3118 18005KT 6SM -SHRA BR SCT015 OVC025
      TEMPO 3022/3024 2SM SHRA BR BKN010 OVC020
     FM310100 22010KT P6SM -SHRA SCT015 BKN030 OVC040
     FM310400 25008KT P6SM -SHRA SCT025 OVC035
     FM310700 23008KT P6SM VCSH SCT035 BKN050 OVC070=



000
FTUS45 KTWC 302200 AAA
TAFTUS
TAF AMD
KTUS 302220Z 3022/3118 11010KT 4SM -SHRA BR SCT020 BKN035 OVC045
      TEMPO 3022/3024 2SM SHRA BR SCT010 BKN020
     FM310200 10008KT P6SM -SHRA SCT035 OVC045
     FM310700 14008KT P6SM VCSH SCT045 BKN060 OVC080=



000
FTUS45 KTWC 301800 AAA
TAFOLS
TAF AMD
KOLS 301852Z 3019/3118 18008KT 4SM -SHRA BR SCT015 OVC025
      TEMPO 3019/3021 2SM SHRA BR SCT010 BKN014
     FM302100 22010KT 4SM -SHRA BR SCT015 BKN030 OVC040
     FM310200 25008KT P6SM -SHRA SCT025 OVC035
     FM310700 23008KT P6SM VCSH SCT035 BKN050 OVC070=



000
FTUS45 KTWC 301800 AAA
TAFOLS
TAF AMD
KOLS 301852Z 3019/3118 18008KT 4SM -SHRA BR SCT015 OVC025
      TEMPO 3019/3021 2SM SHRA BR SCT010 BKN014
     FM302100 22010KT 4SM -SHRA BR SCT015 BKN030 OVC040
     FM310200 25008KT P6SM -SHRA SCT025 OVC035
     FM310700 23008KT P6SM VCSH SCT035 BKN050 OVC070=



000
FTUS45 KTWC 301700
TAFDUG
TAF
KDUG 301735Z 3018/3118 09012G20KT P6SM -SHRA SCT025 BKN040 OVC060
     FM302000 11010G18KT P6SM VCSH SCT010 BKN025 OVC035
     FM310100 15010KT 4SM -SHRA BR SCT010 BKN020 OVC030
     FM310700 18008KT P6SM -SHRA SCT015 OVC025
     FM311200 22008KT P6SM VCSH SCT025 BKN040 OVC060=



000
FTUS45 KTWC 301700
TAFOLS
TAF
KOLS 301735Z 3018/3118 17012KT 5SM -SHRA BR SCT020 OVC030
     FM301900 20010KT P6SM VCSH SCT025 BKN035 OVC045
     FM302100 22010KT 4SM -SHRA BR SCT015 BKN030 OVC040
     FM310200 25008KT P6SM -SHRA SCT025 OVC035
     FM310700 23008KT P6SM VCSH SCT035 BKN050 OVC070=



000
FTUS45 KTWC 301700
TAFOLS
TAF
KOLS 301735Z 3018/3118 17012KT 5SM -SHRA BR SCT020 OVC030
     FM301900 20010KT P6SM VCSH SCT025 BKN035 OVC045
     FM302100 22010KT 4SM -SHRA BR SCT015 BKN030 OVC040
     FM310200 25008KT P6SM -SHRA SCT025 OVC035
     FM310700 23008KT P6SM VCSH SCT035 BKN050 OVC070=



000
FTUS45 KTWC 301700
TAFTUS
TAF
KTUS 301735Z 3018/3118 12012G20KT P6SM VCSH SCT045 BKN060 OVC080
     FM301900 11010G18KT P6SM -SHRA SCT030 BKN045 OVC060
     FM302100 11010KT 4SM -SHRA BR SCT020 BKN035 OVC045
     FM310200 10008KT P6SM -SHRA SCT035 OVC045
     FM310700 14008KT P6SM VCSH SCT045 BKN060 OVC080=



000
FTUS45 KTWC 301200 AAA
TAFDUG
TAF AMD
KDUG 301235Z 3013/3112 20005KT P6SM -SHRA SCT025 OVC035
      TEMPO 3013/3016 2SM SHRA SCT010 BKN015
     FM301600 12010KT P6SM -SHRA SCT020 OVC030
     FM310200 10008KT P6SM -SHRA SCT015 OVC025=



000
FTUS45 KTWC 301100
TAFDUG
TAF
KDUG 301131Z 3012/3112 20005KT P6SM -SHRA SCT025 OVC035
      TEMPO 3012/3016 4SM -SHRA BKN025
     FM301600 12010KT P6SM -SHRA SCT020 OVC030
     FM310200 10008KT P6SM -SHRA SCT015 OVC025=



000
FTUS45 KTWC 301100
TAFTUS
TAF
KTUS 301131Z 3012/3112 11013KT P6SM -SHRA SCT040 OVC070
     FM301700 08011KT P6SM -SHRA SCT035 OVC050
     FM310300 14006KT P6SM -SHRA SCT025 OVC040=



000
FTUS45 KTWC 301100
TAFOLS
TAF
KOLS 301131Z 3012/3112 14011KT P6SM -SHRA SCT035 OVC060
     FM301700 19010KT P6SM -SHRA SCT025 OVC040
     FM310200 15005KT P6SM -SHRA SCT020 OVC030=



000
FTUS45 KTWC 301100
TAFOLS
TAF
KOLS 301131Z 3012/3112 14011KT P6SM -SHRA SCT035 OVC060
     FM301700 19010KT P6SM -SHRA SCT025 OVC040
     FM310200 15005KT P6SM -SHRA SCT020 OVC030=



000
FTUS45 KTWC 300900 AAA
TAFDUG
TAF AMD
KDUG 300952Z 3010/3106 11013KT P6SM -SHRA SCT025 OVC050
      TEMPO 3010/3014 4SM -SHRA BKN025 OVC035
     FM301500 11010KT P6SM -SHRA SCT020 OVC035
     FM310200 10008KT P6SM -SHRA SCT015 OVC025=



000
FTUS45 KTWC 300800 AAA
TAFTUS
TAF AMD
KTUS 300805Z 3008/3106 13015G23KT P6SM VCSH SCT070 OVC090
      TEMPO 3008/3010 -SHRA BKN050 OVC070
     FM301000 12011KT P6SM -SHRA SCT050 OVC080
     FM301500 09011KT P6SM -SHRA SCT035 OVC050
     FM310300 14007KT P6SM -SHRA SCT025 OVC040=



000
FTUS45 KTWC 300500
TAFTUS
TAF
KTUS 300538Z 3006/3106 11007KT P6SM VCSH SCT080 OVC100
      TEMPO 3006/3009 -SHRA BKN060 OVC080
     FM300900 11007KT P6SM -SHRA SCT050 OVC080
     FM301500 09011KT P6SM -SHRA SCT035 OVC050
     FM310300 14007KT P6SM -SHRA SCT025 OVC040=



000
FTUS45 KTWC 300500
TAFOLS
TAF
KOLS 300538Z 3006/3106 15007KT P6SM SCT060 OVC080
      TEMPO 3006/3009 -SHRA BKN050 OVC070
     FM300900 15006KT P6SM -SHRA SCT035 OVC060
     FM301500 16009KT P6SM -SHRA SCT025 OVC040
     FM310200 15005KT P6SM -SHRA SCT020 OVC030=



000
FTUS45 KTWC 300500
TAFOLS
TAF
KOLS 300538Z 3006/3106 15007KT P6SM SCT060 OVC080
      TEMPO 3006/3009 -SHRA BKN050 OVC070
     FM300900 15006KT P6SM -SHRA SCT035 OVC060
     FM301500 16009KT P6SM -SHRA SCT025 OVC040
     FM310200 15005KT P6SM -SHRA SCT020 OVC030=



000
FTUS45 KTWC 300500
TAFDUG
TAF
KDUG 300538Z 3006/3106 11013KT P6SM -SHRA SCT035 OVC050
     FM301500 11010KT P6SM -SHRA SCT020 OVC035
     FM310200 10008KT P6SM -SHRA SCT015 OVC025=



000
FTUS45 KTWC 292300
TAFOLS
TAF
KOLS 292334Z 3000/3024 11009KT P6SM VCSH BKN080 OVC100
     FM300300 13007KT P6SM -SHRA BKN040 OVC060
     FM300800 15006KT P6SM -SHRA SCT025 OVC040
     FM301400 17009KT P6SM -SHRA SCT020 OVC030=



000
FTUS45 KTWC 292300
TAFDUG
TAF
KDUG 292334Z 3000/3024 07010KT P6SM VCSH SCT060 OVC090
     FM300300 09013G21KT P6SM -SHRA SCT035 OVC050
     FM301000 08012KT P6SM -SHRA SCT020 OVC035
     FM301400 11010KT P6SM -SHRA SCT015 OVC025=



000
FTUS45 KTWC 292300
TAFOLS
TAF
KOLS 292334Z 3000/3024 11009KT P6SM VCSH BKN080 OVC100
     FM300300 13007KT P6SM -SHRA BKN040 OVC060
     FM300800 15006KT P6SM -SHRA SCT025 OVC040
     FM301400 17009KT P6SM -SHRA SCT020 OVC030=



000
FTUS45 KTWC 292300
TAFTUS
TAF
KTUS 292334Z 3000/3024 01005KT P6SM VCSH SCT070 OVC100
     FM300300 06007KT P6SM -SHRA BKN050 OVC080
     FM300900 12011KT P6SM -SHRA SCT035 OVC050
     FM301400 12014G22KT P6SM -SHRA SCT025 OVC040=



000
FTUS45 KTWC 291700 RRA
TAFOLS
TAF
KOLS 291740Z 2918/3018 08011KT P6SM BKN090 OVC180
     FM291900 16010G18KT P6SM BKN090 OVC140
     FM292100 13009KT P6SM VCSH BKN060 OVC110
     FM300200 15009KT P6SM -SHRA FEW015 BKN025 OVC060
     FM300600 11008KT 6SM -SHRA BR SCT010 BKN020 OVC040=



000
FTUS45 KTWC 291700 RRA
TAFOLS
TAF
KOLS 291740Z 2918/3018 08011KT P6SM BKN090 OVC180
     FM291900 16010G18KT P6SM BKN090 OVC140
     FM292100 13009KT P6SM VCSH BKN060 OVC110
     FM300200 15009KT P6SM -SHRA FEW015 BKN025 OVC060
     FM300600 11008KT 6SM -SHRA BR SCT010 BKN020 OVC040=



000
FTUS45 KTWC 291700 RRA
TAFDUG
TAF
KDUG 291740Z 2918/3018 29006KT P6SM BKN100 OVC180
     FM292000 20010KT P6SM BKN090 OVC130
     FM292100 14013G21KT P6SM VCSH BKN050 OVC100
     FM300200 11016G23KT P6SM -SHRA FEW010 BKN025 OVC050
     FM300600 08011G20KT 6SM -SHRA BR SCT010 BKN020 OVC040=



000
FTUS45 KTWC 291700 RRA
TAFTUS
TAF
KTUS 291740Z 2918/3018 17007KT P6SM BKN100 OVC200
     FM292000 16012KT P6SM FEW070 BKN100 OVC150
     FM292200 15012G20KT P6SM VCSH BKN070 OVC120
     FM300200 12009KT P6SM -SHRA FEW020 BKN035 OVC070
     FM300700 12011KT 6SM -SHRA BR SCT015 BKN025 OVC050=



000
FTUS45 KTWC 291100
TAFOLS
TAF
KOLS 291120Z 2912/3012 08005KT P6SM BKN130 OVC250
     FM291800 17010G18KT P6SM BKN090 OVC140
     FM300200 18009KT P6SM VCSH BKN060 OVC110
     FM300500 15009KT P6SM -SHRA SCT015 BKN030 OVC060=



000
FTUS45 KTWC 291100
TAFOLS
TAF
KOLS 291120Z 2912/3012 08005KT P6SM BKN130 OVC250
     FM291800 17010G18KT P6SM BKN090 OVC140
     FM300200 18009KT P6SM VCSH BKN060 OVC110
     FM300500 15009KT P6SM -SHRA SCT015 BKN030 OVC060=



000
FTUS45 KTWC 291100
TAFDUG
TAF
KDUG 291120Z 2912/3012 09005KT P6SM SCT120 BKN250
     FM291800 14012G18KT P6SM BKN080 OVC130
     FM300400 10015G23KT P6SM VCSH BKN050 OVC100
     FM300700 11017G25KT P6SM -SHRA SCT010 BKN025 OVC050=



000
FTUS45 KTWC 291100
TAFTUS
TAF
KTUS 291120Z 2912/3012 16007KT P6SM BKN140 OVC250
     FM291700 13012G20KT P6SM BKN100 OVC150
     FM300300 11008KT P6SM VCSH BKN070 OVC120
     FM300500 12009KT P6SM -SHRA SCT020 BKN035 OVC070=



000
FTUS45 KTWC 290500
TAFOLS
TAF
KOLS 290536Z 2906/3006 VRB03KT P6SM BKN130 OVC250
     FM290900 VRB03KT P6SM BKN120 OVC200
     FM291700 17011G18KT P6SM BKN090 OVC140
     FM300200 15008KT P6SM BKN060 OVC100=



000
FTUS45 KTWC 290500
TAFOLS
TAF
KOLS 290536Z 2906/3006 VRB03KT P6SM BKN130 OVC250
     FM290900 VRB03KT P6SM BKN120 OVC200
     FM291700 17011G18KT P6SM BKN090 OVC140
     FM300200 15008KT P6SM BKN060 OVC100=



000
FTUS45 KTWC 290500
TAFDUG
TAF
KDUG 290536Z 2906/3006 35006KT P6SM SCT140 OVC250
     FM291000 VRB04KT P6SM BKN120 OVC180
     FM291700 14011G18KT P6SM BKN080 OVC130
     FM300200 11015G27KT P6SM BKN050 OVC090=



000
FTUS45 KTWC 290500
TAFTUS
TAF
KTUS 290536Z 2906/3006 23006KT P6SM BKN140 OVC250
     FM290900 14007KT P6SM BKN130 OVC200
     FM291700 13012G20KT P6SM BKN100 OVC150
     FM300200 11009KT P6SM BKN070 OVC120=



000
FTUS45 KTWC 282300
TAFDUG
TAF
KDUG 282335Z 2900/2924 18007KT P6SM FEW150 BKN250
     FM290200 02005KT P6SM FEW150 BKN250
     FM291000 VRB04KT P6SM SCT120 OVC180
     FM291700 13011G18KT P6SM SCT080 OVC130=



000
FTUS45 KTWC 282300
TAFTUS
TAF
KTUS 282335Z 2900/2924 34008KT P6SM FEW140 BKN250
     FM290300 23005KT P6SM SCT140 BKN250
     FM290900 14007KT P6SM SCT130 OVC200
     FM291700 14012G20KT P6SM SCT100 OVC150=



000
FTUS45 KTWC 282300
TAFOLS
TAF
KOLS 282335Z 2900/2924 28008KT P6SM FEW130 BKN250
     FM290200 VRB03KT P6SM SCT130 BKN250
     FM290800 VRB03KT P6SM SCT120 OVC200
     FM291600 17011G18KT P6SM SCT090 OVC140=



000
FTUS45 KTWC 282300
TAFOLS
TAF
KOLS 282335Z 2900/2924 28008KT P6SM FEW130 BKN250
     FM290200 VRB03KT P6SM SCT130 BKN250
     FM290800 VRB03KT P6SM SCT120 OVC200
     FM291600 17011G18KT P6SM SCT090 OVC140=



000
FTUS45 KTWC 281700
TAFOLS
TAF
KOLS 281733Z 2818/2918 VRB03KT P6SM BKN250
     FM281900 29007KT P6SM FEW090 BKN250
     FM290200 08005KT P6SM OVC250
     FM290800 VRB03KT P6SM FEW140 OVC200
     FM291600 18010KT P6SM SCT110 OVC180=



000
FTUS45 KTWC 281700
TAFDUG
TAF
KDUG 281733Z 2818/2918 26008KT P6SM BKN250
     FM281900 25005KT P6SM FEW080 BKN250
     FM290200 02005KT P6SM OVC200
     FM291000 VRB03KT P6SM FEW130 OVC180
     FM291600 13011G18KT P6SM SCT100 OVC150=



000
FTUS45 KTWC 281700
TAFTUS
TAF
KTUS 281733Z 2818/2918 VRB04KT P6SM BKN250
     FM281900 32008KT P6SM FEW100 BKN250
     FM290200 22005KT P6SM OVC250
     FM290700 14007KT P6SM FEW150 OVC200
     FM291600 14012G20KT P6SM SCT120 OVC180=



000
FTUS45 KTWC 281100
TAFDUG
TAF
KDUG 281139Z 2812/2912 36008KT P6SM SCT250
     FM281900 25005KT P6SM FEW080 BKN250
     FM290300 02005KT P6SM SCT110 OVC200=



000
FTUS45 KTWC 281100
TAFOLS
TAF
KOLS 281139Z 2812/2912 VRB03KT P6SM SCT250
     FM281900 29007KT P6SM FEW090 BKN250
     FM290200 VRB03KT P6SM SCT120 OVC200=



000
FTUS45 KTWC 281100
TAFOLS
TAF
KOLS 281139Z 2812/2912 VRB03KT P6SM SCT250
     FM281900 29007KT P6SM FEW090 BKN250
     FM290200 VRB03KT P6SM SCT120 OVC200=



000
FTUS45 KTWC 281100
TAFTUS
TAF
KTUS 281139Z 2812/2912 14005KT P6SM SCT250
     FM281900 34008KT P6SM FEW100 BKN250
     FM290300 23004KT P6SM SCT150 OVC200=



    US Dept of Commerce
    National Oceanic and Atmospheric Administration
    National Weather Service
    1325 East West Highway
    Silver Spring, MD 20910
    Page Author: NWS Internet Services Team
Disclaimer
Information Quality
Credits
Glossary
Privacy Policy
Freedom of Information Act (FOIA)
About Us
Career Opportunities